Antigo, Wisconsin
Current Conditions -  °F | °C
As of 4:55 PM on Friday 31 Oct 2014 (Local Time) from KAIG Reporting Station
Broken Clouds Broken Clouds  
Wind Chill: -6°   Ceiling: 4200
Heat Index:   Visibility: 10mi
Dew Point: -8°   Wind: 13mph
Humidity: 58%   Direction: 350°N
Pressure: 30.39"   Gusts: 20mph
Location:  45.14°N, 89.15°W
Report Text: KAIG 312155Z AUTO 35011G17KT 10SM BKN042 00/M08 A3039 RMK AO2 T10021076
Loading
Personal Weather Stations






























Interactive Weather Map
Tropical Storm Tracking
New forecast layout! Learn more

10-Day Weather Forecast

Advertisements
Track Severe Weather on mobile